Hamburg Bridge — 3FVW2 — position and weather

sailwx.info

Track history (hours):
 
Tides and Currents Weather Stations Pressure Air Temp Water Temp Dewpoint Dewpoint Depression Visibility Wind Speed Wind Dir Waves Ship Positions

Hamburg Bridge

Last reported at 2017-Dec-17 20:22 UTC. Time now 2017-Dec-18 03:11 UTC.
Position N 41°36' E 141°38'.

Length 336 m; draft 11.8 m.

Type: Cargo ship. MMSI: 372724000.

Date/timePositionNaut miles runAvg speedWind from/ knotsBaromVisibWave heightAir tempDewpointWater temp
2017-Dec-17 20:22N 41°36' E 141°38'923.0
2017-Dec-17 20:00N 41°36' E 141°26'1123.4
2017-Dec-17 19:30N 41°37' E 141°11'1325.2
2017-Dec-17 19:01N 41°37' E 140°54'1223.1
2017-Dec-17 18:30N 41°31' E 140°41'1122.6
2017-Dec-17 18:00N 41°25' E 140°28'1224.2
2017-Dec-17 17:30N 41°19' E 140°15'  
2017-Dec-14 18:30N 31°06' E 122°19'712.8
2017-Dec-14 17:59N 31°10' E 122°12'713.5
2017-Dec-14 17:29N 31°14' E 122°06'511.2
2017-Dec-14 17:00N 31°15' E 121°60'7 9.1
2017-Dec-14 16:11N 31°16' E 121°51'210.2
2017-Dec-14 16:00N 31°17' E 121°49'12 8.6
2017-Dec-14 14:34N 31°22' E 121°36'1 9.1
2017-Dec-14 14:30N 31°23' E 121°36'1 0.2
2017-Dec-14 09:57N 31°22' E 121°35'0 0.0
2017-Dec-14 09:09N 31°22' E 121°35'0 0.0
2017-Dec-14 05:27N 31°23' E 121°35'0 0.0
2017-Dec-13 14:33N 31°22' E 121°35'0 0.0
2017-Dec-13 14:06N 31°23' E 121°35'0 0.1
2017-Dec-13 12:58N 31°23' E 121°35'1 3.2
2017-Dec-13 12:30N 31°22' E 121°37'4 7.7
2017-Dec-13 12:01N 31°21' E 121°40'5 8.7
2017-Dec-13 11:29N 31°19' E 121°45'611.1
2017-Dec-13 10:58N 31°16' E 121°51'611.1
2017-Dec-13 10:27N 31°15' E 121°58'511.1
2017-Dec-13 10:00N 31°14' E 122°04'710.2
2017-Dec-13 09:19N 31°11' E 122°11'310.5
2017-Dec-13 09:01N 31°09' E 122°14'510.1
2017-Dec-13 08:31N 31°06' E 122°19'5 9.7
2017-Dec-13 07:59N 31°06' E 122°25'7 8.2
2017-Dec-13 07:08N 31°06' E 122°33'  
Track history (hours):
 
Tides and Currents Weather Stations Pressure Air Temp Water Temp Dewpoint Dewpoint Depression Visibility Wind Speed Wind Dir Waves Ship Positions

Hamburg Bridge

Last reported at 2017-Dec-17 20:22 UTC. Time now 2017-Dec-18 03:11 UTC.
Position N 41°36' E 141°38'.

Length 336 m; draft 11.8 m.

Type: Cargo ship. MMSI: 372724000.

Date/timePositionNaut miles runAvg speedWind from/ knotsBaromVisibWave heightAir tempDewpointWater temp
2017-Dec-17 20:22N 41°36' E 141°38'923.0
2017-Dec-17 20:00N 41°36' E 141°26'1123.4
2017-Dec-17 19:30N 41°37' E 141°11'1325.2
2017-Dec-17 19:01N 41°37' E 140°54'1223.1
2017-Dec-17 18:30N 41°31' E 140°41'1122.6
2017-Dec-17 18:00N 41°25' E 140°28'1224.2
2017-Dec-17 17:30N 41°19' E 140°15'  
2017-Dec-14 18:30N 31°06' E 122°19'712.8
2017-Dec-14 17:59N 31°10' E 122°12'713.5
2017-Dec-14 17:29N 31°14' E 122°06'511.2
2017-Dec-14 17:00N 31°15' E 121°60'7 9.1
2017-Dec-14 16:11N 31°16' E 121°51'210.2
2017-Dec-14 16:00N 31°17' E 121°49'12 8.6
2017-Dec-14 14:34N 31°22' E 121°36'1 9.1
2017-Dec-14 14:30N 31°23' E 121°36'1 0.2
2017-Dec-14 09:57N 31°22' E 121°35'0 0.0
2017-Dec-14 09:09N 31°22' E 121°35'0 0.0
2017-Dec-14 05:27N 31°23' E 121°35'0 0.0
2017-Dec-13 14:33N 31°22' E 121°35'0 0.0
2017-Dec-13 14:06N 31°23' E 121°35'0 0.1
2017-Dec-13 12:58N 31°23' E 121°35'1 3.2
2017-Dec-13 12:30N 31°22' E 121°37'4 7.7
2017-Dec-13 12:01N 31°21' E 121°40'5 8.7
2017-Dec-13 11:29N 31°19' E 121°45'611.1
2017-Dec-13 10:58N 31°16' E 121°51'611.1
2017-Dec-13 10:27N 31°15' E 121°58'511.1
2017-Dec-13 10:00N 31°14' E 122°04'710.2
2017-Dec-13 09:19N 31°11' E 122°11'310.5
2017-Dec-13 09:01N 31°09' E 122°14'510.1
2017-Dec-13 08:31N 31°06' E 122°19'5 9.7
2017-Dec-13 07:59N 31°06' E 122°25'7 8.2
2017-Dec-13 07:08N 31°06' E 122°33'  

Dump ship's entire track history